createdAt,value
2022-12-13T00:01:19.973Z,12.65
2022-12-13T00:03:46.946Z,12.27
2022-12-13T00:06:14.247Z,14.50
2022-12-13T00:08:41.852Z,15.32
2022-12-13T00:11:12.328Z,11.75
2022-12-13T00:13:40.191Z,11.60
2022-12-13T00:16:10.280Z,13.48
2022-12-13T00:18:37.152Z,14.48
2022-12-13T00:21:14.603Z,11.93
2022-12-13T00:23:42.046Z,15.52
2022-12-13T00:26:13.208Z,13.35
2022-12-13T00:28:40.871Z,11.93
2022-12-13T00:31:44.676Z,13.40
2022-12-13T00:33:57.597Z,11.77
2022-12-13T00:36:29.626Z,13.75
2022-12-13T00:39:03.341Z,12.10
2022-12-13T00:41:33.077Z,11.60
2022-12-13T00:44:00.610Z,11.80
2022-12-13T00:46:28.841Z,15.88
2022-12-13T00:48:58.108Z,13.20
2022-12-13T00:51:25.901Z,9.05
2022-12-13T00:53:53.648Z,10.10
2022-12-13T00:56:25.683Z,10.77
2022-12-13T00:58:53.444Z,12.25
2022-12-13T01:01:24.567Z,8.55
2022-12-13T01:03:55.768Z,12.23
2022-12-13T01:06:36.494Z,11.40
2022-12-13T01:09:05.577Z,12.70
2022-12-13T01:11:32.745Z,10.57
2022-12-13T01:13:59.705Z,10.85
2022-12-13T01:16:26.706Z,14.23
2022-12-13T01:18:53.612Z,13.07
2022-12-13T01:21:22.339Z,8.00
2022-12-13T01:23:49.503Z,10.15
2022-12-13T01:26:20.677Z,10.77
2022-12-13T01:28:48.718Z,12.55
2022-12-13T01:31:18.723Z,8.63
2022-12-13T01:33:46.101Z,10.13
2022-12-13T01:36:27.352Z,9.77
2022-12-13T01:38:58.354Z,10.20
2022-12-13T01:41:28.457Z,10.50
2022-12-13T01:44:01.121Z,8.95
2022-12-13T01:46:28.805Z,10.45
2022-12-13T01:49:04.299Z,8.05
2022-12-13T01:51:49.375Z,13.32
2022-12-13T01:54:23.119Z,8.15
2022-12-13T01:57:00.756Z,13.80
2022-12-13T01:59:28.933Z,10.25
2022-12-13T02:02:01.044Z,9.25
2022-12-13T02:04:43.914Z,12.38
2022-12-13T02:07:22.523Z,9.07
2022-12-13T02:09:56.322Z,12.57
2022-12-13T02:12:29.340Z,11.70
2022-12-13T02:15:01.278Z,13.90
2022-12-13T02:20:47.731Z,13.75
2022-12-13T02:23:29.676Z,16.33
2022-12-13T02:26:34.111Z,8.95
2022-12-13T02:29:30.548Z,8.25
2022-12-13T02:32:24.457Z,10.75
2022-12-13T02:35:23.826Z,7.85
2022-12-13T02:37:54.874Z,8.65
2022-12-13T02:40:37.942Z,9.43
2022-12-13T02:43:23.110Z,9.07
2022-12-13T02:45:54.705Z,8.13
2022-12-13T02:48:28.994Z,11.82
2022-12-13T02:50:57.291Z,12.30
2022-12-13T02:53:25.640Z,10.18
2022-12-13T02:55:52.514Z,10.43
2022-12-13T02:58:34.433Z,12.10
2022-12-13T03:01:27.869Z,12.45
2022-12-13T03:04:11.991Z,14.05
2022-12-13T03:06:54.474Z,8.65
2022-12-13T03:09:48.386Z,10.90
2022-12-13T03:12:49.799Z,8.85
2022-12-13T03:15:22.783Z,8.77
2022-12-13T03:17:59.824Z,10.63
2022-12-13T03:20:29.311Z,9.23
2022-12-13T03:22:57.620Z,9.90
2022-12-13T03:25:30.977Z,10.10
2022-12-13T03:28:02.002Z,11.20
2022-12-13T03:30:30.298Z,9.02
2022-12-13T03:32:57.180Z,10.98
2022-12-13T03:35:25.105Z,12.88
2022-12-13T03:38:02.949Z,11.73
2022-12-13T03:40:31.292Z,8.80
2022-12-13T03:42:58.475Z,8.43
2022-12-13T03:45:25.314Z,14.85
2022-12-13T03:47:52.166Z,13.25
2022-12-13T03:50:26.541Z,10.40
2022-12-13T03:53:01.844Z,12.98
2022-12-13T03:55:29.766Z,11.55
2022-12-13T03:57:56.923Z,11.65
2022-12-13T04:00:24.184Z,11.02
2022-12-13T04:02:51.420Z,8.93
2022-12-13T04:05:18.657Z,13.05
2022-12-13T04:07:48.302Z,12.15
2022-12-13T04:10:25.984Z,9.43
2022-12-13T04:13:13.240Z,8.70
2022-12-13T04:15:41.121Z,12.60
2022-12-13T04:18:08.068Z,11.65
2022-12-13T04:20:35.095Z,14.07
2022-12-13T04:23:10.460Z,10.18
2022-12-13T04:25:38.777Z,10.95
2022-12-13T04:28:06.243Z,14.95
2022-12-13T04:30:33.530Z,10.75
2022-12-13T04:33:01.146Z,10.35
2022-12-13T04:35:28.658Z,10.23
2022-12-13T04:37:57.443Z,10.20
2022-12-13T04:40:24.679Z,10.90
2022-12-13T04:42:54.191Z,13.65
2022-12-13T04:45:23.702Z,11.60
2022-12-13T04:47:51.597Z,12.57
2022-12-13T04:50:19.068Z,12.23
2022-12-13T04:52:46.403Z,10.18
2022-12-13T04:55:13.875Z,12.88
2022-12-13T04:57:41.214Z,11.35
2022-12-13T05:00:11.719Z,13.15
2022-12-13T05:02:38.721Z,10.77
2022-12-13T05:05:06.095Z,11.20
2022-12-13T05:07:33.243Z,9.23
2022-12-13T05:10:00.574Z,10.85
2022-12-13T05:12:28.793Z,11.73
2022-12-13T05:14:56.005Z,10.23
2022-12-13T05:17:23.199Z,13.05
2022-12-13T05:19:51.628Z,10.70
2022-12-13T05:22:20.752Z,10.63
2022-12-13T05:24:48.605Z,13.13
2022-12-13T05:27:24.813Z,15.98
2022-12-13T05:30:02.785Z,13.90
2022-12-13T05:32:43.330Z,12.60
2022-12-13T05:35:21.824Z,15.63
2022-12-13T05:37:54.376Z,10.00
2022-12-13T05:42:49.488Z,7.25
2022-12-13T05:45:19.049Z,6.82
2022-12-13T05:47:46.658Z,7.18
2022-12-13T05:50:17.080Z,14.02
2022-12-13T05:52:44.477Z,8.77
2022-12-13T05:55:12.544Z,10.02
2022-12-13T05:57:39.375Z,11.43
2022-12-13T06:00:29.372Z,7.72
2022-12-13T06:02:56.707Z,6.45
2022-12-13T06:10:44.283Z,6.78
2022-12-13T06:13:31.560Z,8.48
2022-12-13T06:16:05.665Z,7.00
2022-12-13T06:18:34.967Z,9.70
2022-12-13T06:21:07.198Z,7.70
2022-12-13T06:23:35.248Z,12.23
2022-12-13T06:26:06.392Z,11.52
2022-12-13T06:28:33.642Z,10.30
2022-12-13T06:31:02.581Z,13.15
2022-12-13T06:33:30.240Z,8.65
2022-12-13T06:35:58.631Z,10.73
2022-12-13T06:38:31.330Z,9.02
2022-12-13T06:41:14.339Z,8.75
2022-12-13T06:43:51.449Z,8.10
2022-12-13T06:46:18.455Z,8.52
2022-12-13T06:48:46.731Z,6.72
2022-12-13T06:51:22.576Z,10.85
2022-12-13T06:53:50.430Z,8.20
2022-12-13T06:56:17.675Z,9.52
2022-12-13T06:58:45.127Z,9.75
2022-12-13T07:01:23.723Z,28.65
2022-12-13T07:03:54.516Z,11.77
2022-12-13T07:06:23.160Z,8.35
2022-12-13T07:08:52.600Z,11.73
2022-12-13T07:11:23.526Z,8.38
2022-12-13T07:13:55.910Z,9.60
2022-12-13T07:16:23.991Z,11.38
2022-12-13T07:19:01.099Z,17.83
2022-12-13T07:21:29.673Z,17.77
2022-12-13T07:23:56.623Z,10.05
2022-12-13T07:26:23.785Z,13.18
2022-12-13T07:28:55.049Z,16.88
2022-12-13T07:31:22.879Z,18.30
2022-12-13T07:33:50.004Z,13.60
2022-12-13T07:36:22.343Z,14.43
2022-12-13T07:38:53.600Z,16.05
2022-12-13T07:41:24.162Z,8.52
2022-12-13T07:43:55.168Z,14.80
2022-12-13T07:49:05.091Z,10.57
2022-12-13T07:54:06.152Z,10.70
2022-12-13T07:56:34.028Z,10.93
2022-12-13T07:59:00.904Z,8.20
2022-12-13T08:01:28.602Z,11.45
2022-12-13T08:03:55.476Z,14.35
2022-12-13T08:06:22.270Z,15.18
2022-12-13T08:08:51.233Z,17.15
2022-12-13T08:11:18.220Z,13.23
2022-12-13T08:13:45.211Z,10.85
2022-12-13T08:16:25.963Z,13.02
2022-12-13T08:19:02.191Z,13.00
2022-12-13T08:24:24.984Z,15.85
2022-12-13T08:26:51.936Z,19.08
2022-12-13T08:29:23.438Z,13.90
2022-12-13T08:32:02.378Z,18.60
2022-12-13T08:34:29.614Z,21.65
2022-12-13T08:37:01.852Z,16.45
2022-12-13T08:39:35.608Z,15.27
2022-12-13T08:42:15.365Z,11.77
2022-12-13T08:44:51.506Z,10.65
2022-12-13T08:47:26.470Z,12.65
2022-12-13T08:49:55.223Z,17.40
2022-12-13T08:52:23.840Z,11.68
2022-12-13T08:54:51.051Z,13.05
2022-12-13T08:57:18.433Z,10.93
2022-12-13T08:59:45.386Z,15.15
2022-12-13T09:02:13.997Z,11.60
2022-12-13T09:04:41.139Z,21.38
2022-12-13T09:07:08.097Z,12.90
2022-12-13T09:09:34.962Z,11.15
2022-12-13T09:12:10.331Z,13.98
2022-12-13T09:14:38.395Z,16.98
2022-12-13T09:17:24.996Z,49.97
2022-12-13T09:19:58.142Z,12.98
2022-12-13T09:22:33.478Z,21.08
2022-12-13T09:25:02.557Z,22.10
2022-12-13T09:27:39.431Z,14.35
2022-12-13T09:30:08.231Z,21.30
2022-12-13T09:32:35.177Z,18.70
2022-12-13T09:35:01.982Z,22.40
2022-12-13T09:37:29.880Z,15.88
2022-12-13T09:39:56.638Z,13.93
2022-12-13T09:42:30.739Z,12.07
2022-12-13T09:45:22.634Z,12.10
2022-12-13T09:48:01.221Z,15.68
2022-12-13T09:50:37.772Z,12.00
2022-12-13T09:53:11.922Z,13.18
2022-12-13T09:55:49.863Z,9.50
2022-12-13T09:58:31.989Z,11.73
2022-12-13T10:00:59.584Z,13.98
2022-12-13T10:03:27.211Z,11.35
2022-12-13T10:06:12.728Z,16.88
2022-12-13T10:08:46.119Z,11.38
2022-12-13T10:11:18.177Z,11.82
2022-12-13T10:14:06.612Z,10.70
2022-12-13T10:16:37.193Z,6.63
2022-12-13T10:19:30.055Z,12.50
2022-12-13T10:22:02.295Z,9.27
2022-12-13T10:24:56.842Z,12.30
2022-12-13T10:27:40.399Z,9.02
2022-12-13T10:30:10.969Z,10.52
2022-12-13T10:32:52.759Z,10.00
2022-12-13T10:35:27.540Z,15.60
2022-12-13T10:37:56.397Z,11.07
2022-12-13T10:40:33.915Z,9.38
2022-12-13T10:43:20.368Z,9.60
2022-12-13T10:45:59.999Z,12.30
2022-12-13T10:48:47.098Z,11.73
2022-12-13T10:51:17.134Z,10.20
2022-12-13T10:53:53.528Z,10.05
2022-12-13T10:56:23.960Z,12.90
2022-12-13T10:59:16.994Z,14.00
2022-12-13T11:01:45.031Z,9.73
2022-12-13T11:04:27.393Z,10.70
2022-12-13T11:06:56.219Z,11.13
2022-12-13T11:09:29.250Z,9.65
2022-12-13T11:12:17.829Z,12.10
2022-12-13T11:14:56.582Z,11.02
2022-12-13T11:17:26.569Z,9.63
2022-12-13T11:19:57.587Z,9.25
2022-12-13T11:22:30.878Z,13.18
2022-12-13T11:25:22.420Z,12.75
2022-12-13T11:28:01.189Z,9.13
2022-12-13T11:30:56.041Z,16.13
2022-12-13T11:33:51.973Z,12.83
2022-12-13T11:36:27.760Z,9.45
2022-12-13T11:39:29.803Z,7.75
2022-12-13T11:42:14.678Z,11.52
2022-12-13T11:45:00.235Z,8.55
2022-12-13T11:47:35.886Z,11.07
2022-12-13T11:50:20.498Z,15.55
2022-12-13T11:53:05.910Z,20.13
2022-12-13T11:55:47.532Z,11.50
2022-12-13T12:01:19.650Z,10.27
2022-12-13T12:04:00.385Z,12.10
2022-12-13T12:06:35.310Z,8.23
2022-12-13T12:09:11.017Z,8.88
2022-12-13T12:12:06.593Z,11.00
2022-12-13T12:14:36.082Z,11.60
2022-12-13T12:17:04.249Z,9.57
2022-12-13T12:19:37.093Z,13.07
2022-12-13T12:22:15.383Z,6.40
2022-12-13T12:24:44.287Z,8.27
2022-12-13T12:27:29.330Z,9.60
2022-12-13T12:30:22.666Z,7.85
2022-12-13T12:33:05.052Z,11.23
2022-12-13T12:35:50.435Z,9.18
2022-12-13T12:38:23.707Z,11.52
2022-12-13T12:41:19.362Z,11.95
2022-12-13T12:44:11.231Z,9.77
2022-12-13T12:47:18.012Z,7.47
2022-12-13T12:49:55.470Z,11.75
2022-12-13T12:52:47.537Z,11.38
2022-12-13T12:57:57.128Z,15.30
2022-12-13T13:00:35.269Z,12.63
2022-12-13T13:03:27.035Z,11.13
2022-12-13T13:06:05.254Z,9.98
2022-12-13T13:08:59.131Z,11.38
2022-12-13T13:11:29.758Z,9.27
2022-12-13T13:14:22.640Z,9.68
2022-12-13T13:16:49.429Z,17.23
2022-12-13T13:19:16.683Z,6.65
2022-12-13T13:21:55.465Z,8.95
2022-12-13T13:24:31.494Z,11.27
2022-12-13T13:27:10.635Z,77.10
2022-12-13T13:29:43.625Z,10.20
2022-12-13T13:32:11.207Z,7.57
2022-12-13T13:34:44.427Z,10.50
2022-12-13T13:37:27.912Z,9.38
2022-12-13T13:40:30.942Z,10.15
2022-12-13T13:43:10.609Z,8.85
2022-12-13T13:45:49.502Z,11.50
2022-12-13T13:48:37.256Z,9.68
2022-12-13T13:51:28.108Z,9.55
2022-12-13T13:54:16.597Z,10.35
2022-12-13T13:57:12.632Z,11.00
2022-12-13T13:59:54.291Z,14.70
2022-12-13T14:02:49.022Z,9.80
2022-12-13T14:05:36.301Z,11.68
2022-12-13T14:08:20.504Z,11.35
2022-12-13T14:11:02.642Z,11.05
2022-12-13T14:14:22.396Z,12.23
2022-12-13T14:16:58.327Z,12.52
2022-12-13T14:20:18.888Z,9.95
2022-12-13T14:23:22.294Z,12.80
2022-12-13T14:25:57.634Z,11.02
2022-12-13T14:28:41.658Z,13.32
2022-12-13T14:31:22.633Z,10.80
2022-12-13T14:33:51.926Z,11.20
2022-12-13T14:36:27.912Z,10.85
2022-12-13T14:39:24.427Z,15.52
2022-12-13T14:41:56.906Z,13.68
2022-12-13T14:44:29.748Z,12.57
2022-12-13T14:47:04.718Z,12.25
2022-12-13T14:49:35.457Z,12.25
2022-12-13T14:52:09.654Z,12.65
2022-12-13T14:54:48.900Z,13.63
2022-12-13T14:57:22.156Z,18.30
2022-12-13T14:59:52.175Z,30.13
2022-12-13T15:02:32.040Z,18.67
2022-12-13T15:05:01.537Z,17.63
2022-12-13T15:07:42.169Z,14.52
2022-12-13T15:10:15.229Z,31.23
2022-12-13T15:12:44.350Z,17.88
2022-12-13T15:15:29.151Z,16.77
2022-12-13T15:18:29.691Z,18.92
2022-12-13T15:20:58.086Z,19.00
2022-12-13T15:23:28.067Z,18.65
2022-12-13T15:26:01.913Z,18.00
2022-12-13T15:28:32.157Z,20.15
2022-12-13T15:31:00.956Z,22.60
2022-12-13T15:33:34.345Z,18.23
2022-12-13T15:36:18.322Z,20.98
2022-12-13T15:38:57.040Z,18.30
2022-12-13T15:41:32.975Z,16.80
2022-12-13T15:44:25.571Z,15.38
2022-12-13T15:46:58.400Z,17.35
2022-12-13T15:49:42.693Z,20.48
2022-12-13T15:52:15.533Z,17.73
2022-12-13T15:54:53.726Z,17.45
2022-12-13T15:57:26.668Z,21.52
2022-12-13T16:00:29.091Z,17.50
2022-12-13T16:03:01.808Z,15.52
2022-12-13T16:05:39.047Z,17.30
2022-12-13T16:08:13.994Z,18.00
2022-12-13T16:10:47.210Z,17.13
2022-12-13T16:13:26.194Z,14.68
2022-12-13T16:16:10.005Z,16.63
2022-12-13T16:18:55.337Z,16.38
2022-12-13T16:21:22.387Z,18.27
2022-12-13T16:23:49.385Z,16.00
2022-12-13T16:26:22.818Z,18.45
2022-12-13T16:28:49.627Z,17.50
2022-12-13T16:31:18.955Z,16.73
2022-12-13T16:33:45.921Z,20.35
2022-12-13T16:36:17.969Z,23.45
2022-12-13T16:38:44.832Z,23.55
2022-12-13T16:41:12.157Z,19.00
2022-12-13T16:43:46.772Z,18.23
2022-12-13T16:47:11.911Z,20.25
2022-12-13T16:49:05.514Z,19.35
2022-12-13T16:51:32.318Z,20.13
2022-12-13T16:53:59.101Z,17.92
2022-12-13T16:56:25.850Z,17.83
2022-12-13T16:58:52.798Z,23.00
2022-12-13T17:01:21.040Z,19.33
2022-12-13T17:03:48.283Z,19.35
2022-12-13T17:06:19.074Z,19.15
2022-12-13T17:08:45.893Z,20.50
2022-12-13T17:11:17.768Z,19.70
2022-12-13T17:13:47.505Z,21.48
2022-12-13T17:16:14.802Z,16.60
2022-12-13T17:18:41.995Z,21.20
2022-12-13T17:21:10.915Z,20.75
2022-12-13T17:23:37.859Z,20.48
2022-12-13T17:26:07.115Z,19.45
2022-12-13T17:28:34.785Z,25.13
2022-12-13T17:31:10.236Z,19.88
2022-12-13T17:33:37.260Z,21.63
2022-12-13T17:36:05.639Z,24.75
2022-12-13T17:38:33.009Z,20.45
2022-12-13T17:41:00.781Z,23.17
2022-12-13T17:43:36.066Z,24.98
2022-12-13T17:46:06.579Z,29.38
2022-12-13T17:48:40.219Z,27.85
2022-12-13T17:51:10.031Z,23.33
2022-12-13T17:53:39.665Z,23.77
2022-12-13T17:56:12.031Z,23.27
2022-12-13T17:58:39.415Z,33.97
2022-12-13T18:01:25.264Z,29.10
2022-12-13T18:03:55.779Z,31.60
2022-12-13T18:06:24.310Z,38.40
2022-12-13T18:08:51.529Z,31.58
2022-12-13T18:11:35.641Z,32.42
2022-12-13T18:14:04.771Z,29.13
2022-12-13T18:16:38.924Z,29.30
2022-12-13T18:19:08.285Z,37.58
2022-12-13T18:21:36.767Z,36.40
2022-12-13T18:24:05.734Z,35.45
2022-12-13T18:26:32.776Z,31.60
2022-12-13T18:28:59.605Z,32.50
2022-12-13T18:31:27.070Z,32.65
2022-12-13T18:33:54.952Z,34.92
2022-12-13T18:36:24.594Z,30.30
2022-12-13T18:38:52.059Z,32.15
2022-12-13T18:41:22.734Z,32.30
2022-12-13T18:43:59.402Z,30.37
2022-12-13T18:46:28.370Z,31.35
2022-12-13T18:48:55.755Z,36.10
2022-12-13T18:51:23.433Z,32.97
2022-12-13T18:53:51.957Z,30.15
2022-12-13T18:56:19.716Z,30.55
2022-12-13T18:58:48.431Z,29.70
2022-12-13T19:01:17.231Z,33.15
2022-12-13T19:03:45.951Z,30.60
2022-12-13T19:06:19.000Z,32.97
2022-12-13T19:08:57.959Z,29.30
2022-12-13T19:11:29.024Z,30.92
2022-12-13T19:13:56.417Z,41.08
2022-12-13T19:16:25.203Z,35.08
2022-12-13T19:18:52.381Z,31.67
2022-12-13T19:21:21.554Z,33.20
2022-12-13T19:23:56.552Z,34.15
2022-12-13T19:26:25.505Z,37.10
2022-12-13T19:28:52.597Z,38.10
2022-12-13T19:31:19.806Z,38.05
2022-12-13T19:33:47.770Z,38.03
2022-12-13T19:36:15.708Z,37.83
2022-12-13T19:38:42.825Z,42.47
2022-12-13T19:41:12.034Z,35.28
2022-12-13T19:43:38.906Z,47.78
2022-12-13T19:46:06.045Z,44.45
2022-12-13T19:48:34.434Z,50.40
2022-12-13T19:51:02.488Z,54.45
2022-12-13T19:53:30.357Z,54.90
2022-12-13T19:55:58.104Z,45.28
2022-12-13T19:58:25.902Z,41.60
2022-12-13T20:00:53.018Z,45.45
2022-12-13T20:03:19.952Z,43.78
2022-12-13T20:05:59.938Z,49.00
2022-12-13T20:08:26.719Z,47.10
2022-12-13T20:10:58.963Z,52.33
2022-12-13T20:13:26.705Z,57.00
2022-12-13T20:15:53.922Z,57.38
2022-12-13T20:18:21.882Z,59.50
2022-12-13T20:21:10.567Z,51.92
2022-12-13T20:23:37.336Z,49.25
2022-12-13T20:26:06.733Z,45.75
2022-12-13T20:28:33.559Z,50.60
2022-12-13T20:31:11.235Z,51.50
2022-12-13T20:33:38.827Z,50.15
2022-12-13T20:36:27.629Z,46.42
2022-12-13T20:38:57.087Z,41.78
2022-12-13T20:41:26.233Z,53.22
2022-12-13T20:43:54.514Z,50.47
2022-12-13T20:46:21.886Z,43.15
2022-12-13T20:48:49.505Z,46.50
2022-12-13T20:51:18.808Z,51.92
2022-12-13T20:53:47.193Z,46.60
2022-12-13T20:56:16.819Z,44.38
2022-12-13T20:58:44.413Z,49.58
2022-12-13T21:01:31.753Z,43.13
2022-12-13T21:04:00.424Z,49.55
2022-12-13T21:06:32.205Z,48.10
2022-12-13T21:09:02.787Z,48.83
2022-12-13T21:11:35.625Z,51.22
2022-12-13T21:14:10.220Z,39.42
2022-12-13T21:16:43.036Z,46.05
2022-12-13T21:19:12.656Z,47.90
2022-12-13T21:21:39.617Z,47.50
2022-12-13T21:24:07.335Z,44.22
2022-12-13T21:26:35.980Z,57.47
2022-12-13T21:29:06.752Z,47.67
2022-12-13T21:31:35.358Z,46.97
2022-12-13T21:34:03.400Z,48.90
2022-12-13T21:36:32.911Z,53.10
2022-12-13T21:39:01.867Z,47.22
2022-12-13T21:41:29.208Z,45.40
2022-12-13T21:43:56.192Z,44.60
2022-12-13T21:46:31.288Z,45.92
2022-12-13T21:49:12.366Z,47.97
2022-12-13T21:51:43.242Z,44.20
2022-12-13T21:54:12.998Z,43.28
2022-12-13T21:57:08.782Z,44.45
2022-12-13T21:59:35.884Z,49.75
2022-12-13T22:02:11.740Z,44.63
2022-12-13T22:04:53.257Z,38.78
2022-12-13T22:07:25.483Z,47.00
2022-12-13T22:09:53.415Z,44.95
2022-12-13T22:12:35.482Z,37.50
2022-12-13T22:15:04.633Z,42.05
2022-12-13T22:17:35.659Z,46.72
2022-12-13T22:20:05.363Z,43.50
2022-12-13T22:22:32.811Z,40.35
2022-12-13T22:24:59.977Z,44.50
2022-12-13T22:27:27.236Z,40.45
2022-12-13T22:29:57.194Z,39.13
2022-12-13T22:32:27.057Z,44.65
2022-12-13T22:34:54.489Z,39.03
2022-12-13T22:37:21.465Z,43.83
2022-12-13T22:39:48.425Z,47.63
2022-12-13T22:42:15.701Z,41.28
2022-12-13T22:44:42.570Z,42.92
2022-12-13T22:47:09.348Z,44.00
2022-12-13T22:49:36.092Z,40.63
2022-12-13T22:52:02.937Z,44.08
2022-12-13T22:54:29.692Z,45.28
2022-12-13T22:56:56.419Z,42.45
2022-12-13T22:59:23.222Z,42.70
2022-12-13T23:01:50.169Z,44.15
2022-12-13T23:04:17.001Z,42.10
2022-12-13T23:06:43.799Z,45.85
2022-12-13T23:09:12.908Z,41.30
2022-12-13T23:11:58.636Z,42.63
2022-12-13T23:14:31.425Z,46.53
2022-12-13T23:16:58.771Z,47.30
2022-12-13T23:19:51.597Z,40.72
2022-12-13T23:22:13.042Z,43.58
2022-12-13T23:24:39.796Z,46.55
2022-12-13T23:27:06.571Z,41.00
2022-12-13T23:29:33.372Z,46.47
2022-12-13T23:32:00.126Z,58.85
2022-12-13T23:34:26.886Z,42.33
2022-12-13T23:36:53.670Z,46.03
2022-12-13T23:39:20.446Z,44.67
2022-12-13T23:41:47.253Z,44.13
2022-12-13T23:44:14.115Z,40.10
2022-12-13T23:46:41.030Z,42.20
2022-12-13T23:49:08.744Z,37.10
2022-12-13T23:51:37.838Z,40.60
2022-12-13T23:54:06.118Z,39.45
2022-12-13T23:56:33.074Z,42.17
2022-12-13T23:59:00.046Z,40.25
